Wetter & Webcam

Wetterdaten Diepholz (ETND)

METAR
METAR text: ETND 151320Z 33004KT 9999 FEW048 BKN300 21/09 Q1020 BLU+ Conditions at: ETND (DIEPHOLZ (GER-AF, DE) observed 1320 UTC 15 June 2021 Temperature: 21.0°C (70°F) Dewpoint: 9.0°C (48°F) [RH = 46%] Pressure (altimeter): 30.12 inches Hg (1020.0 mb) Winds: from the NNW (330 degrees) at 5 MPH (4 knots; 2.1 m/s) Visibility: 6 or more miles (10+ km) Ceiling: 30000 feet AGL Clouds: few clouds at 4800 feet AGL =
broken clouds at 30000 feet AGL Weather: no significant weather observed at this time Forecast for: ETND (DIEPHOLZ (GER-AF, DE) Text: ETND 151000Z 1511/1520 35005KT 9999 NSW FEW020 BKN250 BY ETGL Forecast period: 1100 to 2000 UTC 15 June 2021 Forecast type: FROM: standard forecast or significant change Winds: from the N (350 degrees) at 6 MPH (5 knots; 2.6 m/s) Visibility: 6 or more miles (10+ km) Ceiling: 25000 feet AGL Clouds: few clouds at 2000 feet AGL =
broken clouds at 25000 feet AGL Weather: NSW  (no significant weather)
Sunrise (SR) / Sunset (SS)
03:02 / 19:51 UTC

Wetterdaten Bremen (EDDW)

METAR
METAR text: EDDW 151620Z 34008KT 310V020 9999 FEW044 20/09 Q1020 NOSIG Conditions at: EDDW (BREMEN , DE) observed 1620 UTC 15 June 2021 Temperature: 20.0°C (68°F) Dewpoint: 9.0°C (48°F) [RH = 49%] Pressure (altimeter): 30.12 inches Hg (1020.0 mb) Winds: from the NNW (340 degrees) at 9 MPH (8 knots; 4.1 m/s) Visibility: 6 or more miles (10+ km) Ceiling: at least 12,000 feet AGL Clouds: few clouds at 4400 feet AGL Weather: no significant weather observed at this time Forecast for: EDDW (BREMEN , DE) Text: EDDW 151100Z 1512/1612 32008KT 9999 FEW035 Forecast period: 1200 to 2100 UTC 15 June 2021 Forecast type: FROM: standard forecast or significant change Winds: from the NW (320 degrees) at 9 MPH (8 knots; 4.1 m/s) Visibility: 6 or more miles (10+ km) Ceiling: at least 12,000 feet AGL Clouds: few clouds at 3500 feet AGL Weather: no significant weather forecast for this period Text: BECMG 1521/1523 05003KT Forecast period: 2100 UTC 15 June 2021 to 0600 UTC 16 June 2021 Forecast type: BECOMING: Conditions expected to become as follows by 2300 UTC 15 June 2021 Winds: from the NE (50 degrees) at 3 MPH (3 knots; 1.5 m/s) Visibility: 6 or more miles (10+ km) Ceiling: at least 12,000 feet AGL Clouds: few clouds at 3500 feet AGL Weather: no significant weather forecast for this period Text: BECMG 1606/1608 11007KT Forecast period: 0600 to 1200 UTC 16 June 2021 Forecast type: BECOMING: Conditions expected to become as follows by 0800 UTC 16 June 2021 Winds: from the ESE (110 degrees) at 8 MPH (7 knots; 3.6 m/s) Visibility: 6 or more miles (10+ km) Ceiling: at least 12,000 feet AGL Clouds: few clouds at 3500 feet AGL Weather: no significant weather forecast for this period

Copyright © 2020 Flugplatz Diepholz-Dümmerland

© 2020 Flugplatz Diepholz-Dümmerland